Time;durP1;ratioP1;P1;durP2;ratioP2;P2;SDS_P1;SDS_P2;PMS_P1;PMS_P2;Temp;Humidity;BMP_temperature;BMP_pressure;BME280_temperature;BME280_humidity;BME280_pressure;Samples;Min_cycle;Max_cycle;Signal;HPM_P1;HPM_P2
2022/03/29 00:02:17;;;;;;;52.95;47.25;;;;;;;4.30;100.00;101284.94;5009361;28;20042;-88
2022/03/29 00:04:46;;;;;;;51.72;46.22;;;;;;;4.33;100.00;101285.44;5004314;28;20043;-88
2022/03/29 00:07:12;;;;;;;52.80;47.78;;;;;;;3.73;100.00;101294.88;5007144;28;20474;-88
2022/03/29 00:09:39;;;;;;;54.08;48.80;;;;;;;3.84;100.00;101284.13;5010949;28;20044;-88
2022/03/29 00:12:06;;;;;;;49.08;44.55;;;;;;;4.04;100.00;101282.19;5007892;28;20471;-87
2022/03/29 00:14:33;;;;;;;46.33;41.80;;;;;;;4.08;100.00;101270.41;5008518;28;20038;-88
2022/03/29 00:21:00;;;;;;;45.85;41.55;;;;;;;4.36;100.00;101266.72;5007764;28;20036;-88
2022/03/29 00:23:27;;;;;;;48.80;43.72;;;;;;;4.19;100.00;101264.94;5004326;28;20157;-88
2022/03/29 00:25:54;;;;;;;48.35;42.28;;;;;;;4.41;100.00;101265.44;5009115;28;20506;-88
2022/03/29 00:28:20;;;;;;;59.30;47.78;;;;;;;4.38;100.00;101265.75;5010945;28;20049;-88
2022/03/29 00:30:47;;;;;;;68.35;48.92;;;;;;;4.34;100.00;101268.69;5011523;28;20089;-88
2022/03/29 00:33:14;;;;;;;64.07;51.00;;;;;;;4.34;100.00;101263.41;5006596;28;20608;-87
2022/03/29 00:35:41;;;;;;;58.65;51.78;;;;;;;4.51;100.00;101260.94;4997186;28;20479;-88
2022/03/29 00:38:09;;;;;;;61.38;49.45;;;;;;;4.42;100.00;101257.41;4987554;28;20137;-87
2022/03/29 00:40:36;;;;;;;64.75;50.90;;;;;;;4.52;100.00;101247.63;4989640;28;20047;-87
2022/03/29 00:43:04;;;;;;;68.68;50.78;;;;;;;4.53;100.00;101235.28;4986180;28;20054;-88
2022/03/29 00:45:31;;;;;;;64.90;51.00;;;;;;;4.49;100.00;101240.03;4992170;28;20097;-87
2022/03/29 00:47:57;;;;;;;95.50;62.78;;;;;;;4.55;100.00;101247.31;4989345;28;20508;-87
2022/03/29 00:50:24;;;;;;;65.85;48.78;;;;;;;4.46;100.00;101237.69;4990109;28;20070;-88
2022/03/29 00:52:52;;;;;;;53.15;43.55;;;;;;;4.58;100.00;101230.38;4989682;28;20424;-87
2022/03/29 00:55:20;;;;;;;60.28;46.42;;;;;;;4.64;100.00;101227.13;4981809;28;20138;-87
2022/03/29 00:57:48;;;;;;;68.90;53.55;;;;;;;4.56;100.00;101229.72;4984530;28;20101;-86
2022/03/29 01:00:16;;;;;;;70.95;51.35;;;;;;;4.50;100.00;101223.25;4992840;28;20050;-87
2022/03/29 01:02:43;;;;;;;80.03;54.08;;;;;;;4.32;100.00;101215.41;4986071;28;20046;-87
2022/03/29 01:05:11;;;;;;;75.22;51.60;;;;;;;4.26;100.00;101217.81;4985157;28;20042;-87
2022/03/29 01:07:38;;;;;;;83.47;51.95;;;;;;;4.21;100.00;101215.66;4984548;28;20108;-87
2022/03/29 01:10:06;;;;;;;75.85;50.90;;;;;;;4.40;100.00;101213.81;4986758;28;20046;-87
2022/03/29 01:12:36;;;;;;;67.25;51.28;;;;;;;4.26;100.00;101216.00;4989838;28;20105;-87
2022/03/29 01:15:05;;;;;;;59.45;47.13;;;;;;;4.30;100.00;101204.22;4992514;28;20100;-88
2022/03/29 01:17:41;;;;;;;90.60;51.65;;;;;;;4.25;100.00;101209.09;4986511;28;20053;-87
2022/03/29 01:20:11;;;;;;;98.80;59.38;;;;;;;4.33;100.00;101209.19;4985441;28;20052;-87
2022/03/29 01:22:43;;;;;;;87.25;62.00;;;;;;;4.40;100.00;101203.31;4988702;28;20051;-87
2022/03/29 01:25:13;;;;;;;84.00;56.75;;;;;;;4.61;100.00;101193.25;4985502;28;20200;-87
2022/03/29 01:27:40;;;;;;;93.03;62.35;;;;;;;4.46;100.00;101189.53;4990214;28;20053;-87
2022/03/29 01:30:08;;;;;;;70.68;59.42;;;;;;;5.05;100.00;101188.72;4990443;28;20113;-87
2022/03/29 01:32:39;;;;;;;64.75;54.53;;;;;;;5.29;100.00;101187.13;4986944;28;20043;-87
2022/03/29 01:35:07;;;;;;;64.18;50.50;;;;;;;5.47;100.00;101185.22;4982503;28;20124;-87
2022/03/29 01:37:35;;;;;;;67.88;51.08;;;;;;;5.09;100.00;101183.13;4992955;28;20571;-87
2022/03/29 01:40:07;;;;;;;88.45;59.30;;;;;;;5.00;100.00;101185.72;4986735;28;20042;-87
2022/03/29 01:42:34;;;;;;;109.40;65.60;;;;;;;4.90;100.00;101187.66;4994502;28;20499;-87
2022/03/29 01:45:01;;;;;;;167.38;88.70;;;;;;;5.32;100.00;101176.28;4992802;28;20079;-87
2022/03/29 01:47:28;;;;;;;168.20;88.40;;;;;;;4.99;100.00;101180.59;4992349;28;20510;-87
2022/03/29 01:49:55;;;;;;;224.23;102.40;;;;;;;5.27;100.00;101175.97;4993612;28;20050;-86
2022/03/29 01:52:22;;;;;;;114.32;69.05;;;;;;;5.50;100.00;101166.44;4992377;28;20081;-87
2022/03/29 01:54:50;;;;;;;127.70;71.97;;;;;;;5.40;100.00;101165.78;4992079;28;20046;-87
2022/03/29 01:57:19;;;;;;;146.77;75.63;;;;;;;5.23;100.00;101162.28;4990980;28;20528;-87
2022/03/29 02:02:30;;;;;;;80.40;59.75;;;;;;;5.27;100.00;101155.69;5037959;23;20107;-81
2022/03/29 02:04:56;;;;;;;77.38;58.90;;;;;;;5.31;100.00;101153.56;5027707;28;20046;-81
2022/03/29 02:07:23;;;;;;;57.67;52.25;;;;;;;5.34;100.00;101158.50;5032977;28;20041;-81
2022/03/29 02:09:50;;;;;;;60.53;51.67;;;;;;;5.43;100.00;101149.66;5033150;28;20133;-82
2022/03/29 02:12:18;;;;;;;57.92;51.83;;;;;;;5.07;100.00;101146.41;5033894;28;20148;-81
2022/03/29 02:14:45;;;;;;;67.45;52.88;;;;;;;5.14;100.00;101144.78;5035463;28;20193;-82
2022/03/29 02:17:12;;;;;;;55.63;49.78;;;;;;;4.91;100.00;101136.66;5031965;28;20053;-82
2022/03/29 02:19:39;;;;;;;67.53;61.03;;;;;;;4.48;100.00;101135.78;5029694;28;20049;-82
2022/03/29 02:22:05;;;;;;;76.68;68.80;;;;;;;5.00;100.00;101134.88;5033681;28;20127;-82
2022/03/29 02:24:32;;;;;;;84.18;75.72;;;;;;;5.06;100.00;101126.34;5032321;28;20079;-82
2022/03/29 02:26:59;;;;;;;104.78;83.07;;;;;;;4.92;100.00;101124.31;5032850;28;20103;-82
2022/03/29 02:29:27;;;;;;;97.80;63.97;;;;;;;5.02;100.00;101123.22;5035165;28;20049;-82
2022/03/29 02:31:54;;;;;;;111.05;71.53;;;;;;;4.91;100.00;101125.31;5033614;28;20099;-82
2022/03/29 02:34:21;;;;;;;66.53;59.75;;;;;;;4.59;100.00;101118.91;5031217;28;20049;-82
2022/03/29 02:36:48;;;;;;;87.97;62.92;;;;;;;4.77;100.00;101111.75;5029430;28;20042;-82
2022/03/29 02:39:15;;;;;;;66.20;54.15;;;;;;;4.72;100.00;101121.94;5034203;28;20045;-82
2022/03/29 02:41:42;;;;;;;144.85;79.68;;;;;;;4.87;100.00;101108.16;5032648;28;20077;-82
2022/03/29 02:44:09;;;;;;;80.18;59.22;;;;;;;4.81;100.00;101109.63;5030664;28;20510;-82
2022/03/29 02:46:37;;;;;;;78.50;52.00;;;;;;;4.76;100.00;101109.28;5031974;28;20094;-81
2022/03/29 02:49:03;;;;;;;72.15;56.10;;;;;;;4.54;100.00;101113.31;5031403;28;20049;-82
2022/03/29 02:51:30;;;;;;;58.50;52.08;;;;;;;4.40;100.00;101108.63;5032147;28;20050;-82
2022/03/29 02:53:58;;;;;;;56.88;50.67;;;;;;;4.50;100.00;101115.41;5032602;28;20115;-82
2022/03/29 02:56:25;;;;;;;52.80;47.25;;;;;;;4.63;100.00;101107.09;5032952;28;20500;-82
2022/03/29 02:58:51;;;;;;;52.97;47.58;;;;;;;4.47;100.00;101097.28;5031662;28;20038;-82
2022/03/29 03:01:18;;;;;;;53.97;46.28;;;;;;;4.47;100.00;101109.63;5030892;28;20054;-81
2022/03/29 03:03:47;;;;;;;56.22;46.80;;;;;;;4.73;100.00;101092.00;5031902;28;20137;-83
2022/03/29 03:06:14;;;;;;;58.60;47.75;;;;;;;4.92;100.00;101092.72;5032561;28;20042;-82
2022/03/29 03:08:41;;;;;;;62.08;47.53;;;;;;;4.76;100.00;101094.31;5032353;28;20076;-82
2022/03/29 03:11:07;;;;;;;76.63;68.30;;;;;;;4.72;100.00;101092.16;5033234;28;20049;-81
2022/03/29 03:13:35;;;;;;;76.85;68.35;;;;;;;4.34;100.00;101094.28;5033401;28;20052;-82
2022/03/29 03:16:02;;;;;;;79.55;67.93;;;;;;;4.00;100.00;101088.97;5032608;28;20046;-82
2022/03/29 03:18:29;;;;;;;86.45;68.57;;;;;;;4.82;100.00;101083.16;5030891;28;20136;-82
2022/03/29 03:20:57;;;;;;;83.57;74.72;;;;;;;5.13;100.00;101084.41;5032066;28;20429;-82
2022/03/29 03:23:24;;;;;;;85.28;76.40;;;;;;;5.22;100.00;101083.41;5033491;28;20137;-83
2022/03/29 03:25:51;;;;;;;79.18;71.38;;;;;;;5.29;100.00;101087.03;5030432;28;20053;-82
2022/03/29 03:28:18;;;;;;;74.15;66.75;;;;;;;4.70;100.00;101080.97;5032332;28;20080;-82
2022/03/29 03:30:45;;;;;;;79.53;71.28;;;;;;;5.08;100.00;101098.03;5033038;28;20045;-82
2022/03/29 03:33:12;;;;;;;71.53;64.15;;;;;;;4.89;100.00;101085.97;5029615;28;20493;-82
2022/03/29 03:35:39;;;;;;;76.90;68.88;;;;;;;4.67;100.00;101082.13;5028891;28;20505;-83
2022/03/29 03:38:08;;;;;;;69.03;63.30;;;;;;;4.73;100.00;101078.03;5030510;28;20497;-82
2022/03/29 03:40:35;;;;;;;63.05;57.63;;;;;;;4.78;100.00;101080.97;5028717;28;20045;-83
2022/03/29 03:43:03;;;;;;;65.20;58.72;;;;;;;4.44;100.00;101078.38;5027539;28;20053;-83
2022/03/29 03:45:30;;;;;;;73.55;66.22;;;;;;;4.24;100.00;101077.78;5033133;28;20128;-82
2022/03/29 03:47:57;;;;;;;71.75;65.15;;;;;;;4.49;100.00;101074.31;5030003;28;20041;-84
2022/03/29 03:50:24;;;;;;;75.35;68.60;;;;;;;4.12;100.00;101075.41;5030456;28;20077;-83
2022/03/29 03:52:52;;;;;;;77.68;70.95;;;;;;;4.37;100.00;101080.81;5030478;28;20053;-82
2022/03/29 03:55:21;;;;;;;55.65;50.75;;;;;;;4.47;100.00;101078.88;5028592;28;20519;-82
2022/03/29 03:57:48;;;;;;;51.25;46.58;;;;;;;4.16;100.00;101075.94;5028020;28;20541;-82
2022/03/29 04:00:16;;;;;;;49.33;44.50;;;;;;;4.23;100.00;101078.75;5032178;28;20053;-81
2022/03/29 04:02:43;;;;;;;50.15;45.85;;;;;;;4.52;100.00;101073.16;5027615;28;20475;-82
2022/03/29 04:05:12;;;;;;;48.70;44.30;;;;;;;4.67;100.00;101073.41;5027037;28;20045;-82
2022/03/29 04:07:39;;;;;;;50.33;45.47;;;;;;;4.72;100.00;101071.94;5031796;28;20416;-81
2022/03/29 04:10:07;;;;;;;52.70;44.88;;;;;;;4.80;100.00;101073.75;5034214;28;20056;-82
2022/03/29 04:12:35;;;;;;;50.38;44.65;;;;;;;4.75;100.00;101074.25;5028585;28;20045;-81
2022/03/29 04:15:02;;;;;;;49.80;43.15;;;;;;;4.67;100.00;101070.75;5032839;28;20468;-81
2022/03/29 04:17:29;;;;;;;42.80;38.25;;;;;;;4.79;100.00;101077.38;5027521;28;20496;-81
2022/03/29 04:19:56;;;;;;;42.58;37.97;;;;;;;4.86;100.00;101077.56;5027814;28;20053;-82
2022/03/29 04:22:23;;;;;;;45.03;40.05;;;;;;;4.87;100.00;101076.56;5029239;28;20052;-82
2022/03/29 04:24:49;;;;;;;46.30;41.70;;;;;;;5.07;100.00;101077.13;5030341;28;20489;-82
2022/03/29 04:27:16;;;;;;;47.20;37.97;;;;;;;5.11;100.00;101073.19;5029482;28;20056;-82
2022/03/29 04:29:44;;;;;;;42.92;38.65;;;;;;;4.72;100.00;101074.56;5033116;28;20092;-83
2022/03/29 04:32:11;;;;;;;45.58;41.17;;;;;;;4.42;100.00;101069.81;5030986;28;20590;-83
2022/03/29 04:34:38;;;;;;;43.28;38.75;;;;;;;4.70;100.00;101073.09;5026674;28;20069;-83
2022/03/29 04:37:05;;;;;;;43.28;39.13;;;;;;;4.73;100.00;101078.84;5031363;28;20062;-82
2022/03/29 04:39:32;;;;;;;42.90;38.05;;;;;;;4.54;100.00;101079.91;5029376;28;20041;-83
2022/03/29 04:41:58;;;;;;;46.17;38.75;;;;;;;4.32;100.00;101073.38;5031539;28;20107;-82
2022/03/29 04:44:25;;;;;;;41.42;37.05;;;;;;;4.49;100.00;101079.56;5032442;28;20053;-82
2022/03/29 04:46:54;;;;;;;42.85;38.45;;;;;;;4.82;100.00;101083.16;5029172;28;20115;-82
2022/03/29 04:49:20;;;;;;;48.05;43.00;;;;;;;5.00;100.00;101071.69;5027244;28;20050;-82
2022/03/29 04:51:47;;;;;;;46.90;41.92;;;;;;;5.03;100.00;101071.38;5030917;28;20060;-82
2022/03/29 04:54:14;;;;;;;52.97;40.92;;;;;;;5.09;100.00;101078.63;5029314;28;20101;-82
2022/03/29 04:56:41;;;;;;;46.90;41.20;;;;;;;5.24;100.00;101078.84;5030127;28;20407;-82
2022/03/29 04:59:08;;;;;;;43.72;38.75;;;;;;;5.35;100.00;101072.41;5031102;28;20045;-81
2022/03/29 05:01:36;;;;;;;46.75;40.92;;;;;;;5.56;100.00;101072.75;5026386;28;20058;-82
2022/03/29 05:04:05;;;;;;;47.42;42.28;;;;;;;5.36;100.00;101074.06;5031633;28;20046;-83
2022/03/29 05:06:32;;;;;;;44.92;40.13;;;;;;;5.29;100.00;101079.16;5027839;28;20567;-82
2022/03/29 05:08:58;;;;;;;47.35;42.38;;;;;;;5.32;100.00;101076.19;5028844;28;20049;-81
2022/03/29 05:11:25;;;;;;;56.20;47.55;;;;;;;5.37;100.00;101075.72;5026084;28;20050;-82
2022/03/29 05:13:53;;;;;;;50.40;41.55;;;;;;;5.26;100.00;101082.09;5031666;28;20065;-82
2022/03/29 05:16:21;;;;;;;48.83;42.33;;;;;;;5.35;100.00;101073.22;5028956;28;20053;-81
2022/03/29 05:18:49;;;;;;;53.17;40.97;;;;;;;5.55;100.00;101080.84;5028859;28;20046;-82
2022/03/29 05:21:18;;;;;;;48.13;43.25;;;;;;;6.04;100.00;101078.19;5027163;28;20419;-81
2022/03/29 05:23:45;;;;;;;44.10;39.30;;;;;;;5.92;100.00;101077.69;5030157;28;20042;-81
2022/03/29 05:26:12;;;;;;;43.20;37.90;;;;;;;6.02;100.00;101069.63;5026795;28;20468;-81
2022/03/29 05:28:38;;;;;;;46.05;41.25;;;;;;;6.30;100.00;101064.81;5030026;28;20555;-81
2022/03/29 05:31:06;;;;;;;43.17;39.17;;;;;;;6.33;100.00;101056.56;5022871;28;20053;-82
2022/03/29 05:33:32;;;;;;;48.75;40.83;;;;;;;6.48;100.00;101068.03;5026688;28;20110;-82
2022/03/29 05:35:59;;;;;;;44.60;40.22;;;;;;;6.67;100.00;101064.16;5030759;28;20551;-81
2022/03/29 05:38:27;;;;;;;42.55;38.38;;;;;;;6.75;100.00;101060.69;4951139;28;20042;-81
2022/03/29 05:40:54;;;;;;;43.97;39.17;;;;;;;6.74;100.00;101057.19;5020394;28;20168;-82
2022/03/29 05:43:21;;;;;;;47.42;43.00;;;;;;;7.02;100.00;101057.56;5026006;28;20492;-80
2022/03/29 05:48:51;;;;;;;47.25;42.88;;;;;;;7.13;100.00;101052.88;5030122;28;20206;-81
2022/03/29 05:48:55;;;;;;;41.97;37.65;;;;;;;7.25;100.00;101054.09;5027016;28;20141;-82
2022/03/29 05:51:24;;;;;;;47.55;42.72;;;;;;;7.43;100.00;101057.28;5022631;28;20053;-81
2022/03/29 05:53:53;;;;;;;44.85;40.33;;;;;;;7.43;100.00;101054.63;5026084;28;20486;-82
2022/03/29 05:56:21;;;;;;;43.33;39.33;;;;;;;7.50;100.00;101054.75;5027379;28;20128;-82
2022/03/29 05:58:48;;;;;;;46.88;42.13;;;;;;;7.64;100.00;101053.16;5029593;28;20099;-82
2022/03/29 06:01:15;;;;;;;47.05;41.42;;;;;;;7.69;100.00;101054.25;5026510;28;20061;-82
2022/03/29 06:03:42;;;;;;;43.78;39.40;;;;;;;7.88;100.00;101039.72;5028464;28;20045;-82
2022/03/29 06:06:09;;;;;;;41.28;37.40;;;;;;;8.02;100.00;101048.69;5027510;28;20061;-81
2022/03/29 06:08:35;;;;;;;45.47;40.58;;;;;;;8.27;100.00;101047.41;5029656;28;20480;-81
2022/03/29 06:11:04;;;;;;;45.20;41.13;;;;;;;8.25;100.00;101046.75;5042438;23;20111;-89
2022/03/29 06:13:32;;;;;;;43.95;40.13;;;;;;;8.38;100.00;101038.22;5022771;28;20049;-87
2022/03/29 06:15:59;;;;;;;46.28;42.22;;;;;;;8.49;100.00;101028.97;5024328;28;20069;-87
2022/03/29 06:18:25;;;;;;;45.35;41.47;;;;;;;8.65;100.00;101034.09;5026496;28;20048;-87
2022/03/29 06:20:52;;;;;;;45.35;41.10;;;;;;;8.91;100.00;101038.84;5019761;28;20550;-87
2022/03/29 06:23:20;;;;;;;47.85;43.60;;;;;;;9.07;100.00;101036.97;5032052;28;20407;-88
2022/03/29 06:25:47;;;;;;;45.15;41.05;;;;;;;8.97;100.00;101033.81;5032444;28;20422;-88
2022/03/29 06:28:18;;;;;;;45.47;41.25;;;;;;;9.50;100.00;101040.47;5026284;28;20042;-88
2022/03/29 06:30:45;;;;;;;46.95;42.72;;;;;;;9.78;100.00;101029.06;5028127;28;20068;-88
2022/03/29 06:33:14;;;;;;;47.90;43.65;;;;;;;9.93;100.00;101034.28;5029798;28;20054;-88
2022/03/29 06:35:43;;;;;;;44.90;41.15;;;;;;;10.21;100.00;101037.69;5027109;28;20515;-88
2022/03/29 06:38:13;;;;;;;46.22;42.08;;;;;;;10.21;100.00;101026.25;5027351;28;20523;-88
2022/03/29 06:40:40;;;;;;;47.85;43.58;;;;;;;9.98;100.00;101018.56;5029218;28;20046;-87
2022/03/29 06:43:07;;;;;;;47.97;43.47;;;;;;;10.55;100.00;101020.13;5025904;28;20050;-87
2022/03/29 06:45:35;;;;;;;47.85;43.03;;;;;;;10.98;100.00;101015.38;5030497;28;20049;-88
2022/03/29 06:48:02;;;;;;;49.25;45.03;;;;;;;11.03;100.00;101017.41;5029372;28;20068;-88
2022/03/29 06:50:29;;;;;;;47.72;43.55;;;;;;;11.26;100.00;101009.06;5026141;28;20068;-88
2022/03/29 06:52:59;;;;;;;46.38;42.03;;;;;;;11.69;100.00;101017.47;5026272;28;20049;-88
2022/03/29 06:55:27;;;;;;;50.95;45.40;;;;;;;11.36;100.00;101014.81;5030342;28;20422;-88
2022/03/29 06:57:54;;;;;;;50.67;45.47;;;;;;;11.89;100.00;101008.66;5032576;28;20060;-88
2022/03/29 07:00:21;;;;;;;49.90;45.33;;;;;;;12.32;100.00;101006.31;5026771;28;20042;-88
2022/03/29 07:02:50;;;;;;;52.67;48.28;;;;;;;12.36;100.00;101012.03;5011045;28;20042;-88
2022/03/29 07:05:19;;;;;;;52.90;47.95;;;;;;;12.70;100.00;101007.38;5011415;28;20054;-88
2022/03/29 07:07:46;;;;;;;49.80;45.13;;;;;;;13.13;100.00;101009.38;5008394;28;20541;-87
2022/03/29 07:12:58;;;;;;;47.45;43.35;;;;;;;13.74;100.00;100998.88;4995257;28;20439;-88
2022/03/29 07:15:25;;;;;;;48.22;44.25;;;;;;;14.01;100.00;100997.78;4999445;28;20069;-87
2022/03/29 07:17:54;;;;;;;49.13;44.65;;;;;;;14.21;100.00;100996.53;4999467;28;20046;-88
2022/03/29 07:20:24;;;;;;;52.22;47.38;;;;;;;14.37;97.32;100987.13;4994263;28;20185;-88
2022/03/29 07:22:52;;;;;;;51.22;46.80;;;;;;;14.76;98.14;100984.16;4994480;28;20042;-89
2022/03/29 07:25:20;;;;;;;49.25;44.53;;;;;;;14.88;90.86;100982.34;4993904;28;20054;-88
2022/03/29 07:27:49;;;;;;;55.08;50.47;;;;;;;15.06;87.26;100976.13;4991825;28;20081;-88
2022/03/29 07:30:16;;;;;;;55.50;50.92;;;;;;;15.07;81.86;100972.41;4994776;28;20100;-88
2022/03/29 07:32:47;;;;;;;47.75;43.75;;;;;;;15.37;78.71;100969.66;4993609;28;20511;-89
2022/03/29 07:35:17;;;;;;;54.88;49.92;;;;;;;15.08;78.24;100968.69;4994224;28;20054;-88
2022/03/29 07:37:45;;;;;;;55.65;51.15;;;;;;;15.48;74.16;100974.19;4993161;28;20051;-88
2022/03/29 07:40:16;;;;;;;45.63;41.95;;;;;;;14.59;74.30;100967.97;4993796;28;20105;-88
2022/03/29 07:42:43;;;;;;;44.63;40.75;;;;;;;15.21;71.48;100973.81;4993424;28;20061;-88
2022/03/29 07:45:11;;;;;;;48.08;43.67;;;;;;;14.74;71.59;100964.88;4994484;28;20104;-88
2022/03/29 07:47:38;;;;;;;51.25;46.58;;;;;;;15.26;69.66;100962.44;4993125;28;20046;-88
2022/03/29 07:50:07;;;;;;;53.22;48.30;;;;;;;15.76;69.11;100956.66;4993795;28;20047;-88
2022/03/29 07:52:37;;;;;;;49.83;46.00;;;;;;;15.77;66.79;100951.06;4993536;28;20085;-89
2022/03/29 07:55:06;;;;;;;50.75;46.88;;;;;;;15.79;68.74;100957.00;4993757;28;20470;-88
2022/03/29 07:57:33;;;;;;;48.17;43.85;;;;;;;15.62;70.51;100960.59;4993446;28;20054;-88
2022/03/29 08:00:00;;;;;;;49.55;45.25;;;;;;;15.78;70.70;100955.38;4993870;28;20050;-87
2022/03/29 08:02:47;;;;;;;48.13;44.05;;;;;;;16.36;68.70;100947.44;4992559;28;20492;-88
2022/03/29 08:05:15;;;;;;;55.25;49.25;;;;;;;15.87;70.75;100955.00;4993889;28;20052;-88
2022/03/29 08:07:43;;;;;;;50.90;46.35;;;;;;;15.90;69.62;100941.97;4993220;28;20046;-88
2022/03/29 08:10:10;;;;;;;53.17;48.65;;;;;;;16.51;68.63;100944.22;4993496;28;20420;-88
2022/03/29 08:12:39;;;;;;;49.15;45.42;;;;;;;15.85;69.71;100943.72;5007269;28;20046;-88
2022/03/29 08:15:10;;;;;;;50.88;46.97;;;;;;;15.83;70.35;100941.28;5009670;28;20069;-88
2022/03/29 08:17:38;;;;;;;54.85;50.70;;;;;;;15.95;68.59;100943.94;5008636;28;20466;-88
2022/03/29 08:20:09;;;;;;;62.97;57.30;;;;;;;15.62;68.04;100936.50;5011351;28;20045;-89
2022/03/29 08:22:37;;;;;;;169.05;130.73;;;;;;;15.27;68.01;100940.78;5010514;28;20473;-88
2022/03/29 08:25:13;;;;;;;58.05;53.28;;;;;;;15.81;67.17;100938.00;5012355;28;20080;-89
2022/03/29 08:27:40;;;;;;;116.75;94.30;;;;;;;14.52;70.68;100937.81;5010019;28;20072;-87
2022/03/29 08:30:13;;;;;;;49.78;45.33;;;;;;;16.55;64.16;100929.28;5013186;28;20054;-88
2022/03/29 08:32:43;;;;;;;55.95;50.75;;;;;;;16.37;63.96;100925.78;5012138;28;20053;-88
2022/03/29 08:35:12;;;;;;;58.67;54.30;;;;;;;16.05;64.15;100927.25;5010743;28;20045;-88
2022/03/29 08:37:41;;;;;;;53.85;50.05;;;;;;;16.10;62.67;100927.38;5009728;28;20046;-88
2022/03/29 08:40:15;;;;;;;55.97;51.63;;;;;;;14.14;67.04;100913.00;5005772;28;20408;-88
2022/03/29 08:42:44;;;;;;;57.75;53.10;;;;;;;15.86;65.11;100921.25;5011187;28;20050;-88
2022/03/29 08:45:17;;;;;;;56.53;51.95;;;;;;;15.75;63.40;100914.84;5012313;28;20050;-88
2022/03/29 08:47:47;;;;;;;59.45;54.95;;;;;;;14.18;67.02;100908.00;5009947;28;20041;-88
2022/03/29 08:50:24;;;;;;;52.90;49.03;;;;;;;15.63;64.02;100909.47;5007334;28;20081;-87
2022/03/29 08:52:52;;;;;;;57.00;53.20;;;;;;;14.35;68.76;100906.34;5007087;28;20125;-89
2022/03/29 08:55:25;;;;;;;56.38;52.03;;;;;;;13.50;72.04;100911.66;5011800;28;20046;-87
2022/03/29 08:57:55;;;;;;;59.45;54.28;;;;;;;13.54;73.22;100896.81;5008883;28;20042;-87
2022/03/29 09:00:24;;;;;;;52.40;48.40;;;;;;;14.37;69.03;100901.59;5013036;28;20523;-88
2022/03/29 09:02:53;;;;;;;55.38;51.03;;;;;;;15.33;68.03;100897.03;5010517;28;20120;-88
2022/03/29 09:05:26;;;;;;;50.03;46.45;;;;;;;13.91;69.08;100896.84;5010451;28;20050;-87
2022/03/29 09:08:08;;;;;;;51.03;46.70;;;;;;;15.16;66.35;100897.97;5008285;28;20470;-88
2022/03/29 09:10:50;;;;;;;47.63;43.87;;;;;;;16.53;62.62;100893.88;5008214;28;20046;-88
2022/03/29 09:13:22;;;;;;;48.85;45.05;;;;;;;16.79;60.97;100884.41;5007919;28;20053;-88
2022/03/29 09:15:52;;;;;;;49.47;45.88;;;;;;;16.96;57.82;100879.06;5009993;28;20519;-87
2022/03/29 09:18:25;;;;;;;53.05;48.63;;;;;;;15.18;62.17;100877.16;5012028;28;20050;-89
2022/03/29 09:21:08;;;;;;;51.67;47.75;;;;;;;16.44;61.98;100864.78;5011532;28;20133;-88
2022/03/29 09:23:40;;;;;;;49.50;46.10;;;;;;;14.60;64.06;100868.00;5006934;28;20050;-88
2022/03/29 09:26:26;;;;;;;52.25;48.33;;;;;;;13.62;71.32;100861.84;5011440;28;20053;-88
2022/03/29 09:28:55;;;;;;;53.08;48.63;;;;;;;16.86;60.70;100859.06;5012302;28;20049;-88
2022/03/29 09:31:27;;;;;;;58.25;53.08;;;;;;;16.13;59.02;100854.56;5001306;28;20054;-88
2022/03/29 09:34:12;;;;;;;47.88;44.10;;;;;;;17.07;59.57;100857.53;5007850;28;20145;-88
2022/03/29 09:36:44;;;;;;;58.10;52.58;;;;;;;17.23;59.19;100852.38;5005538;28;20048;-88
2022/03/29 09:39:39;;;;;;;51.10;46.88;;;;;;;16.28;58.34;100844.13;5009882;28;20078;-88
2022/03/29 09:42:13;;;;;;;53.17;48.35;;;;;;;16.00;62.25;100839.56;5007051;28;20050;-87
2022/03/29 09:44:42;;;;;;;58.95;53.17;;;;;;;16.31;62.79;100832.09;5012388;28;20049;-89
2022/03/29 09:47:13;;;;;;;52.55;48.35;;;;;;;17.63;55.49;100830.63;5006982;28;20053;-88
2022/03/29 09:50:20;;;;;;;51.65;47.15;;;;;;;19.27;52.14;100829.44;5003161;28;20046;-87
2022/03/29 09:52:51;;;;;;;53.90;49.67;;;;;;;18.79;52.08;100823.22;5007068;28;20142;-88
2022/03/29 09:55:22;;;;;;;75.05;61.10;;;;;;;16.87;54.48;100825.00;5007795;28;20434;-88
2022/03/29 09:57:58;;;;;;;86.03;66.72;;;;;;;17.59;56.03;100816.88;5013615;28;20050;-88
2022/03/29 10:00:36;;;;;;;56.65;51.33;;;;;;;17.87;54.39;100811.59;5016235;28;20056;-88
2022/03/29 10:03:08;;;;;;;50.97;47.35;;;;;;;18.34;53.13;100802.94;5015812;28;20476;-88
2022/03/29 10:05:39;;;;;;;47.95;44.42;;;;;;;18.18;49.18;100800.06;5014779;28;20494;-88
2022/03/29 10:10:55;;;;;;;57.65;53.08;;;;;;;17.93;53.51;100791.78;5015672;28;20112;-88
2022/03/29 10:13:27;;;;;;;52.35;48.67;;;;;;;18.63;49.98;100788.09;5011312;28;20108;-88
2022/03/29 10:15:56;;;;;;;55.00;51.10;;;;;;;18.43;50.73;100786.06;5012305;28;20057;-88
2022/03/29 10:18:28;;;;;;;55.63;51.88;;;;;;;19.30;49.62;100785.84;5014078;28;20050;-87
2022/03/29 10:21:01;;;;;;;;;;;;;;;18.78;48.11;100779.34;5012465;28;20053;-88
2022/03/29 10:23:30;;;;;;;49.45;45.55;;;;;;;17.22;54.21;100772.94;5021200;28;19995;-87
2022/03/29 10:25:59;;;;;;;53.03;48.60;;;;;;;16.91;57.49;100770.63;5015855;28;20050;-88
2022/03/29 10:28:30;;;;;;;53.22;49.45;;;;;;;19.13;47.58;100765.31;5012289;28;20050;-88
2022/03/29 10:30:59;;;;;;;49.58;45.78;;;;;;;20.19;46.61;100757.03;5013351;28;20046;-87
2022/03/29 10:33:31;;;;;;;50.85;47.08;;;;;;;20.26;45.10;100754.84;5014101;28;20072;-88
2022/03/29 10:36:08;;;;;;;52.08;47.70;;;;;;;19.83;44.68;100751.59;5014857;28;20145;-87
2022/03/29 10:38:55;;;;;;;49.80;45.47;;;;;;;20.51;42.20;100745.94;5013504;28;20129;-88
2022/03/29 10:41:51;;;;;;;49.67;45.75;;;;;;;19.18;45.98;100742.97;5013229;28;20137;-89
2022/03/29 10:44:22;;;;;;;53.17;48.70;;;;;;;20.68;44.56;100745.69;5014300;28;20052;-89
2022/03/29 10:46:53;;;;;;;48.92;45.20;;;;;;;16.79;51.70;100726.16;5009904;28;20049;-88
2022/03/29 10:49:28;;;;;;;50.28;46.35;;;;;;;18.92;47.18;100724.03;5012018;28;20430;-89
2022/03/29 10:51:58;;;;;;;51.00;46.97;;;;;;;19.32;43.42;100719.09;5012664;28;20123;-88
2022/03/29 10:54:28;;;;;;;48.75;44.90;;;;;;;19.37;44.50;100711.03;5011351;28;20522;-87
2022/03/29 10:57:00;;;;;;;48.83;44.67;;;;;;;21.67;40.99;100708.88;5013757;28;20108;-87
2022/03/29 10:59:29;;;;;;;46.25;42.33;;;;;;;19.98;44.11;100711.19;5015741;28;20459;-88
2022/03/29 11:02:13;;;;;;;46.40;42.72;;;;;;;20.55;41.22;100698.50;5012849;28;20046;-89
2022/03/29 11:05:10;;;;;;;46.58;42.88;;;;;;;20.99;42.84;100684.34;5011622;28;20576;-88
2022/03/29 11:08:11;;;;;;;47.90;44.00;;;;;;;19.90;44.23;100692.84;5008195;28;20049;-89
2022/03/29 11:10:41;;;;;;;46.05;41.95;;;;;;;20.36;43.05;100674.78;5011600;28;20072;-88
2022/03/29 11:13:24;;;;;;;44.35;40.85;;;;;;;19.51;44.72;100679.00;5009465;28;20061;-88
2022/03/29 11:15:53;;;;;;;43.80;40.30;;;;;;;16.91;52.36;100665.19;5006450;28;20103;-88
2022/03/29 11:18:43;;;;;;;47.50;43.25;;;;;;;14.94;59.56;100655.16;5011777;28;20495;-89
2022/03/29 11:21:10;;;;;;;46.40;43.10;;;;;;;19.77;44.95;100651.06;5009885;28;20046;-89
2022/03/29 11:23:48;;;;;;;51.22;47.58;;;;;;;19.59;42.91;100654.25;5011281;28;20163;-88
2022/03/29 11:26:18;;;;;;;45.53;42.50;;;;;;;15.86;53.88;100648.09;5005698;28;20057;-88
2022/03/29 11:28:49;;;;;;;47.88;44.00;;;;;;;20.40;43.20;100634.56;5011779;28;20498;-89
2022/03/29 11:31:23;;;;;;;48.05;44.63;;;;;;;19.31;46.89;100636.69;5003929;28;20447;-88
2022/03/29 11:34:03;;;;;;;44.80;41.67;;;;;;;19.86;44.24;100640.56;5008374;28;20559;-88